createdAt,value
2022-11-14T00:00:08.820Z,1018.31
2022-11-14T00:01:08.793Z,1018.29
2022-11-14T00:02:08.779Z,1018.23
2022-11-14T00:03:08.889Z,1018.26
2022-11-14T00:04:08.779Z,1018.26
2022-11-14T00:05:08.747Z,1018.23
2022-11-14T00:06:08.856Z,1018.24
2022-11-14T00:07:08.790Z,1018.27
2022-11-14T00:08:08.721Z,1018.26
2022-11-14T00:09:08.716Z,1018.30
2022-11-14T00:10:08.721Z,1018.30
2022-11-14T00:11:08.688Z,1018.23
2022-11-14T00:12:08.677Z,1018.26
2022-11-14T00:13:08.660Z,1018.25
2022-11-14T00:14:08.655Z,1018.25
2022-11-14T00:15:08.643Z,1018.23
2022-11-14T00:16:08.647Z,1018.15
2022-11-14T00:17:08.623Z,1018.20
2022-11-14T00:18:08.612Z,1018.21
2022-11-14T00:19:08.617Z,1018.15
2022-11-14T00:20:08.582Z,1018.16
2022-11-14T00:21:08.572Z,1018.20
2022-11-14T00:22:08.674Z,1018.15
2022-11-14T00:23:08.558Z,1018.19
2022-11-14T00:24:08.543Z,1018.17
2022-11-14T00:25:08.547Z,1018.13
2022-11-14T00:26:08.523Z,1018.11
2022-11-14T00:27:08.517Z,1018.07
2022-11-14T00:28:08.499Z,1018.10
2022-11-14T00:29:08.483Z,1018.09
2022-11-14T00:30:08.493Z,1018.07
2022-11-14T00:31:08.473Z,1018.07
2022-11-14T00:32:08.449Z,1018.12
2022-11-14T00:33:08.451Z,1018.07
2022-11-14T00:34:08.437Z,1018.06
2022-11-14T00:35:08.424Z,1018.04
2022-11-14T00:36:08.473Z,1018.06
2022-11-14T00:37:08.410Z,1018.02
2022-11-14T00:38:08.527Z,1018.02
2022-11-14T00:39:08.379Z,1018.01
2022-11-14T00:40:08.372Z,1018.00
2022-11-14T00:41:08.534Z,1017.96
2022-11-14T00:42:08.354Z,1017.98
2022-11-14T00:43:08.346Z,1017.96
2022-11-14T00:44:08.320Z,1018.00
2022-11-14T00:45:08.309Z,1018.01
2022-11-14T00:46:08.306Z,1018.04
2022-11-14T00:47:08.306Z,1018.02
2022-11-14T00:48:08.278Z,1017.98
2022-11-14T00:49:08.266Z,1017.97
2022-11-14T00:50:08.260Z,1017.91
2022-11-14T00:51:08.246Z,1017.93
2022-11-14T00:52:08.250Z,1017.93
2022-11-14T00:53:08.221Z,1017.88
2022-11-14T00:54:08.328Z,1017.83
2022-11-14T00:55:08.206Z,1017.90
2022-11-14T00:56:08.187Z,1017.85
2022-11-14T00:57:08.194Z,1017.82
2022-11-14T00:58:08.181Z,1017.81
2022-11-14T00:59:08.157Z,1017.82
2022-11-14T01:00:08.152Z,1017.75
2022-11-14T01:01:08.312Z,1017.75
2022-11-14T01:02:08.124Z,1017.75
2022-11-14T01:03:08.139Z,1017.70
2022-11-14T01:04:08.107Z,1017.75
2022-11-14T01:05:08.098Z,1017.69
2022-11-14T01:06:08.080Z,1017.69
2022-11-14T01:07:08.077Z,1017.69
2022-11-14T01:08:08.069Z,1017.68
2022-11-14T01:09:08.106Z,1017.69
2022-11-14T01:10:08.158Z,1017.67
2022-11-14T01:11:08.056Z,1017.65
2022-11-14T01:12:08.030Z,1017.65
2022-11-14T01:13:08.063Z,1017.66
2022-11-14T01:14:08.047Z,1017.67
2022-11-14T01:15:07.989Z,1017.61
2022-11-14T01:16:07.981Z,1017.60
2022-11-14T01:17:07.966Z,1017.60
2022-11-14T01:18:07.948Z,1017.60
2022-11-14T01:19:07.968Z,1017.57
2022-11-14T01:20:07.953Z,1017.59
2022-11-14T01:21:07.925Z,1017.51
2022-11-14T01:22:07.916Z,1017.56
2022-11-14T01:23:07.901Z,1017.54
2022-11-14T01:24:07.893Z,1017.52
2022-11-14T01:25:07.888Z,1017.50
2022-11-14T01:26:07.980Z,1017.51
2022-11-14T01:27:07.858Z,1017.44
2022-11-14T01:28:07.845Z,1017.45
2022-11-14T01:29:07.868Z,1017.46
2022-11-14T01:30:07.820Z,1017.41
2022-11-14T01:31:07.829Z,1017.42
2022-11-14T01:32:07.799Z,1017.42
2022-11-14T01:33:07.807Z,1017.43
2022-11-14T01:34:07.784Z,1017.38
2022-11-14T01:35:07.762Z,1017.39
2022-11-14T01:36:07.766Z,1017.38
2022-11-14T01:37:07.742Z,1017.38
2022-11-14T01:38:07.740Z,1017.35
2022-11-14T01:39:07.720Z,1017.33
2022-11-14T01:40:07.722Z,1017.33
2022-11-14T01:41:07.721Z,1017.30
2022-11-14T01:42:07.811Z,1017.26
2022-11-14T01:43:07.687Z,1017.28
2022-11-14T01:44:07.669Z,1017.28
2022-11-14T01:45:07.665Z,1017.29
2022-11-14T01:46:07.644Z,1017.24
2022-11-14T01:47:07.664Z,1017.26
2022-11-14T01:48:07.621Z,1017.19
2022-11-14T01:49:07.617Z,1017.21
2022-11-14T01:50:07.599Z,1017.20
2022-11-14T01:51:07.600Z,1017.23
2022-11-14T01:52:07.586Z,1017.14
2022-11-14T01:53:07.579Z,1017.17
2022-11-14T01:54:07.570Z,1017.16
2022-11-14T01:55:07.562Z,1017.12
2022-11-14T01:56:07.533Z,1017.15
2022-11-14T01:57:07.534Z,1017.14
2022-11-14T01:58:07.640Z,1017.17
2022-11-14T01:59:07.515Z,1017.20
2022-11-14T02:00:07.486Z,1017.18
2022-11-14T02:01:07.585Z,1017.15
2022-11-14T02:02:07.472Z,1017.12
2022-11-14T02:03:07.460Z,1017.15
2022-11-14T02:04:08.860Z,1017.12
2022-11-14T02:05:07.435Z,1017.12
2022-11-14T02:06:07.444Z,1017.08
2022-11-14T02:07:07.527Z,1017.11
2022-11-14T02:08:07.420Z,1017.04
2022-11-14T02:09:07.392Z,1017.07
2022-11-14T02:10:07.387Z,1017.03
2022-11-14T02:11:07.406Z,1017.00
2022-11-14T02:12:07.359Z,1016.98
2022-11-14T02:13:07.358Z,1016.98
2022-11-14T02:14:07.457Z,1016.97
2022-11-14T02:15:07.332Z,1016.98
2022-11-14T02:16:07.321Z,1017.00
2022-11-14T02:17:28.532Z,1016.87
2022-11-14T02:18:08.298Z,1016.82
2022-11-14T02:19:07.282Z,1016.87
2022-11-14T02:20:07.278Z,1016.82
2022-11-14T02:21:07.284Z,1016.86
2022-11-14T02:22:07.256Z,1016.82
2022-11-14T02:23:07.245Z,1016.80
2022-11-14T02:24:07.234Z,1016.87
2022-11-14T02:25:07.224Z,1016.86
2022-11-14T02:26:07.225Z,1016.86
2022-11-14T02:27:07.207Z,1016.86
2022-11-14T02:28:07.196Z,1016.85
2022-11-14T02:29:07.178Z,1016.75
2022-11-14T02:30:07.286Z,1016.78
2022-11-14T02:31:07.171Z,1016.72
2022-11-14T02:32:10.639Z,1016.76
2022-11-14T02:33:11.502Z,1016.73
2022-11-14T02:34:07.140Z,1016.73
2022-11-14T02:35:07.107Z,1016.69
2022-11-14T02:36:07.101Z,1016.71
2022-11-14T02:37:07.090Z,1016.69
2022-11-14T02:38:07.081Z,1016.71
2022-11-14T02:39:07.081Z,1016.70
2022-11-14T02:40:07.071Z,1016.69
2022-11-14T02:41:07.051Z,1016.68
2022-11-14T02:42:07.028Z,1016.66
2022-11-14T02:43:07.041Z,1016.69
2022-11-14T02:44:07.016Z,1016.65
2022-11-14T02:45:06.996Z,1016.66
2022-11-14T02:46:07.108Z,1016.63
2022-11-14T02:47:06.985Z,1016.65
2022-11-14T02:48:06.980Z,1016.59
2022-11-14T02:49:06.962Z,1016.57
2022-11-14T02:50:06.956Z,1016.54
2022-11-14T02:51:06.931Z,1016.59
2022-11-14T02:52:06.921Z,1016.60
2022-11-14T02:53:06.915Z,1016.56
2022-11-14T02:54:06.908Z,1016.55
2022-11-14T02:55:06.894Z,1016.54
2022-11-14T02:56:06.871Z,1016.52
2022-11-14T02:57:06.875Z,1016.50
2022-11-14T02:58:06.862Z,1016.54
2022-11-14T02:59:06.861Z,1016.45
2022-11-14T03:00:11.844Z,1016.48
2022-11-14T03:01:20.414Z,1016.47
2022-11-14T03:02:08.001Z,1016.48
2022-11-14T03:03:06.795Z,1016.46
2022-11-14T03:04:06.799Z,1016.46
2022-11-14T03:05:06.776Z,1016.42
2022-11-14T03:06:06.790Z,1016.45
2022-11-14T03:07:06.816Z,1016.37
2022-11-14T03:08:06.741Z,1016.38
2022-11-14T03:09:06.735Z,1016.38
2022-11-14T03:10:06.720Z,1016.37
2022-11-14T03:11:06.718Z,1016.38
2022-11-14T03:12:06.710Z,1016.37
2022-11-14T03:13:06.705Z,1016.41
2022-11-14T03:14:06.674Z,1016.36
2022-11-14T03:15:06.673Z,1016.38
2022-11-14T03:16:06.652Z,1016.37
2022-11-14T03:17:06.660Z,1016.31
2022-11-14T03:18:06.748Z,1016.31
2022-11-14T03:19:06.629Z,1016.33
2022-11-14T03:20:06.616Z,1016.32
2022-11-14T03:21:06.624Z,1016.35
2022-11-14T03:22:06.592Z,1016.33
2022-11-14T03:23:06.582Z,1016.36
2022-11-14T03:24:06.575Z,1016.32
2022-11-14T03:25:06.560Z,1016.26
2022-11-14T03:26:06.541Z,1016.35
2022-11-14T03:27:06.976Z,1016.31
2022-11-14T03:28:06.532Z,1016.30
2022-11-14T03:29:06.509Z,1016.30
2022-11-14T03:30:06.504Z,1016.28
2022-11-14T03:31:06.529Z,1016.26
2022-11-14T03:32:06.476Z,1016.24
2022-11-14T03:33:06.492Z,1016.29
2022-11-14T03:34:06.575Z,1016.24
2022-11-14T03:35:06.454Z,1016.18
2022-11-14T03:36:06.452Z,1016.20
2022-11-14T03:37:06.437Z,1016.17
2022-11-14T03:38:06.421Z,1016.20
2022-11-14T03:39:06.432Z,1016.17
2022-11-14T03:40:06.406Z,1016.16
2022-11-14T03:41:06.387Z,1016.18
2022-11-14T03:42:06.378Z,1016.15
2022-11-14T03:43:06.358Z,1016.14
2022-11-14T03:44:06.358Z,1016.12
2022-11-14T03:45:06.356Z,1016.03
2022-11-14T03:46:06.332Z,1016.03
2022-11-14T03:47:06.324Z,1016.07
2022-11-14T03:48:06.310Z,1016.04
2022-11-14T03:49:06.308Z,1016.05
2022-11-14T03:50:06.409Z,1015.91
2022-11-14T03:51:06.279Z,1015.96
2022-11-14T03:52:06.274Z,1015.92
2022-11-14T03:53:06.253Z,1015.89
2022-11-14T03:54:06.236Z,1015.93
2022-11-14T03:55:06.240Z,1015.99
2022-11-14T03:56:06.240Z,1015.97
2022-11-14T03:57:06.214Z,1015.94
2022-11-14T03:58:06.206Z,1015.94
2022-11-14T03:59:06.195Z,1015.98
2022-11-14T04:00:06.197Z,1015.97
2022-11-14T04:01:06.230Z,1015.91
2022-11-14T04:02:06.159Z,1015.92
2022-11-14T04:03:06.140Z,1015.91
2022-11-14T04:04:06.129Z,1015.92
2022-11-14T04:05:06.124Z,1015.95
2022-11-14T04:06:06.223Z,1015.91
2022-11-14T04:07:06.147Z,1015.87
2022-11-14T04:08:06.091Z,1015.89
2022-11-14T04:09:06.079Z,1015.92
2022-11-14T04:10:06.061Z,1015.88
2022-11-14T04:11:06.052Z,1015.90
2022-11-14T04:12:08.995Z,1015.88
2022-11-14T04:13:07.048Z,1015.83
2022-11-14T04:14:06.043Z,1015.81
2022-11-14T04:15:06.008Z,1015.79
2022-11-14T04:16:06.014Z,1015.80
2022-11-14T04:17:06.006Z,1015.78
2022-11-14T04:18:05.990Z,1015.78
2022-11-14T04:19:05.986Z,1015.74
2022-11-14T04:20:05.965Z,1015.68
2022-11-14T04:21:05.952Z,1015.70
2022-11-14T04:22:06.057Z,1015.70
2022-11-14T04:23:05.931Z,1015.68
2022-11-14T04:24:10.871Z,1015.70
2022-11-14T04:25:05.901Z,1015.75
2022-11-14T04:26:05.898Z,1015.69
2022-11-14T04:27:05.882Z,1015.73
2022-11-14T04:28:05.867Z,1015.75
2022-11-14T04:29:05.859Z,1015.71
2022-11-14T04:30:05.872Z,1015.72
2022-11-14T04:31:05.851Z,1015.73
2022-11-14T04:32:05.827Z,1015.74
2022-11-14T04:33:05.820Z,1015.74
2022-11-14T04:34:05.806Z,1015.74
2022-11-14T04:35:05.807Z,1015.78
2022-11-14T04:36:05.804Z,1015.71
2022-11-14T04:37:05.787Z,1015.68
2022-11-14T04:38:05.870Z,1015.70
2022-11-14T04:39:05.755Z,1015.70
2022-11-14T04:40:05.748Z,1015.65
2022-11-14T04:41:05.738Z,1015.61
2022-11-14T04:42:05.736Z,1015.60
2022-11-14T04:43:05.713Z,1015.60
2022-11-14T04:44:05.703Z,1015.65
2022-11-14T04:45:05.799Z,1015.65
2022-11-14T04:46:05.671Z,1015.65
2022-11-14T04:47:05.681Z,1015.65
2022-11-14T04:48:05.654Z,1015.60
2022-11-14T04:49:05.636Z,1015.61
2022-11-14T04:50:05.625Z,1015.56
2022-11-14T04:51:05.626Z,1015.63
2022-11-14T04:52:05.632Z,1015.62
2022-11-14T04:53:05.594Z,1015.62
2022-11-14T04:54:05.609Z,1015.74
2022-11-14T04:55:05.596Z,1015.67
2022-11-14T04:56:05.566Z,1015.67
2022-11-14T04:57:05.554Z,1015.63
2022-11-14T04:58:05.556Z,1015.64
2022-11-14T04:59:05.550Z,1015.65
2022-11-14T05:00:05.516Z,1015.60
2022-11-14T05:01:05.601Z,1015.60
2022-11-14T05:02:05.502Z,1015.57
2022-11-14T05:03:05.484Z,1015.55
2022-11-14T05:04:05.480Z,1015.57
2022-11-14T05:05:05.471Z,1015.51
2022-11-14T05:06:05.454Z,1015.51
2022-11-14T05:07:05.475Z,1015.49
2022-11-14T05:08:05.441Z,1015.53
2022-11-14T05:09:05.425Z,1015.53
2022-11-14T05:10:05.454Z,1015.50
2022-11-14T05:11:05.399Z,1015.53
2022-11-14T05:12:05.391Z,1015.53
2022-11-14T05:13:05.373Z,1015.58
2022-11-14T05:14:05.372Z,1015.53
2022-11-14T05:15:05.371Z,1015.53
2022-11-14T05:16:05.360Z,1015.54
2022-11-14T05:17:05.338Z,1015.55
2022-11-14T05:18:05.318Z,1015.53
2022-11-14T05:19:05.322Z,1015.58
2022-11-14T05:20:05.296Z,1015.56
2022-11-14T05:21:05.304Z,1015.55
2022-11-14T05:22:05.279Z,1015.59
2022-11-14T05:23:05.272Z,1015.53
2022-11-14T05:24:05.259Z,1015.51
2022-11-14T05:25:05.247Z,1015.47
2022-11-14T05:26:05.251Z,1015.50
2022-11-14T05:27:05.233Z,1015.42
2022-11-14T05:28:05.209Z,1015.38
2022-11-14T05:29:05.200Z,1015.30
2022-11-14T05:30:05.186Z,1015.45
2022-11-14T05:31:05.178Z,1015.42
2022-11-14T05:32:05.183Z,1015.38
2022-11-14T05:33:05.153Z,1015.42
2022-11-14T05:34:05.149Z,1015.40
2022-11-14T05:35:05.136Z,1015.35
2022-11-14T05:36:05.133Z,1015.43
2022-11-14T05:37:05.128Z,1015.37
2022-11-14T05:38:05.093Z,1015.45
2022-11-14T05:39:05.087Z,1015.33
2022-11-14T05:40:05.085Z,1015.39
2022-11-14T05:41:05.074Z,1015.39
2022-11-14T05:42:05.094Z,1015.41
2022-11-14T05:43:05.043Z,1015.35
2022-11-14T05:44:05.031Z,1015.38
2022-11-14T05:45:05.027Z,1015.35
2022-11-14T05:46:05.010Z,1015.31
2022-11-14T05:47:05.013Z,1015.34
2022-11-14T05:48:05.011Z,1015.21
2022-11-14T05:49:04.991Z,1015.28
2022-11-14T05:50:04.965Z,1015.24
2022-11-14T05:51:04.966Z,1015.24
2022-11-14T05:52:04.969Z,1015.26
2022-11-14T05:53:04.948Z,1015.31
2022-11-14T05:54:04.945Z,1015.29
2022-11-14T05:55:04.909Z,1015.26
2022-11-14T05:56:04.910Z,1015.31
2022-11-14T05:57:04.888Z,1015.28
2022-11-14T05:58:04.922Z,1015.26
2022-11-14T05:59:04.884Z,1015.23
2022-11-14T06:00:04.884Z,1015.23
2022-11-14T06:01:04.859Z,1015.22
2022-11-14T06:02:04.893Z,1015.25
2022-11-14T06:03:04.829Z,1015.20
2022-11-14T06:04:04.818Z,1015.20
2022-11-14T06:05:04.825Z,1015.16
2022-11-14T06:06:04.805Z,1015.15
2022-11-14T06:07:04.844Z,1015.20
2022-11-14T06:08:04.813Z,1015.19
2022-11-14T06:09:04.760Z,1015.26
2022-11-14T06:10:04.759Z,1015.17
2022-11-14T06:11:04.759Z,1015.17
2022-11-14T06:12:04.728Z,1015.19
2022-11-14T06:13:04.738Z,1015.19
2022-11-14T06:14:09.620Z,1015.15
2022-11-14T06:15:05.709Z,1015.22
2022-11-14T06:16:04.695Z,1015.23
2022-11-14T06:17:04.662Z,1015.13
2022-11-14T06:18:04.661Z,1015.17
2022-11-14T06:19:04.646Z,1015.21
2022-11-14T06:20:04.688Z,1015.23
2022-11-14T06:21:04.620Z,1015.17
2022-11-14T06:22:04.673Z,1015.23
2022-11-14T06:23:04.606Z,1015.16
2022-11-14T06:24:04.588Z,1015.13
2022-11-14T06:25:04.576Z,1015.16
2022-11-14T06:26:04.575Z,1015.21
2022-11-14T06:27:04.575Z,1015.23
2022-11-14T06:28:04.550Z,1015.20
2022-11-14T06:29:04.540Z,1015.25
2022-11-14T06:30:04.548Z,1015.24
2022-11-14T06:31:04.529Z,1015.18
2022-11-14T06:32:04.522Z,1015.15
2022-11-14T06:33:04.518Z,1015.21
2022-11-14T06:34:04.484Z,1015.15
2022-11-14T06:35:04.476Z,1015.21
2022-11-14T06:36:04.526Z,1015.18
2022-11-14T06:37:04.456Z,1015.20
2022-11-14T06:38:04.464Z,1015.18
2022-11-14T06:39:04.440Z,1015.20
2022-11-14T06:40:04.435Z,1015.18
2022-11-14T06:41:04.446Z,1015.19
2022-11-14T06:42:04.395Z,1015.14
2022-11-14T06:43:04.380Z,1015.11
2022-11-14T06:44:04.397Z,1015.11
2022-11-14T06:45:04.368Z,1015.13
2022-11-14T06:46:04.377Z,1015.11
2022-11-14T06:47:04.337Z,1015.07
2022-11-14T06:48:04.326Z,1015.09
2022-11-14T06:49:04.318Z,1015.12
2022-11-14T06:50:04.326Z,1015.06
2022-11-14T06:51:04.300Z,1015.12
2022-11-14T06:52:04.282Z,1015.09
2022-11-14T06:53:04.280Z,1015.13
2022-11-14T06:54:04.258Z,1015.15
2022-11-14T06:55:04.260Z,1015.18
2022-11-14T06:56:04.243Z,1015.11
2022-11-14T06:57:04.251Z,1015.13
2022-11-14T06:58:04.218Z,1015.14
2022-11-14T06:59:04.227Z,1015.11
2022-11-14T07:00:04.197Z,1015.14
2022-11-14T07:01:04.243Z,1015.19
2022-11-14T07:02:04.193Z,1015.18
2022-11-14T07:03:04.219Z,1015.17
2022-11-14T07:04:04.158Z,1015.21
2022-11-14T07:05:04.139Z,1015.18
2022-11-14T07:06:04.133Z,1015.18
2022-11-14T07:07:04.195Z,1015.15
2022-11-14T07:08:04.119Z,1015.17
2022-11-14T07:09:04.107Z,1015.25
2022-11-14T07:10:04.081Z,1015.22
2022-11-14T07:11:04.084Z,1015.22
2022-11-14T07:12:04.085Z,1015.27
2022-11-14T07:13:04.047Z,1015.27
2022-11-14T07:14:04.038Z,1015.25
2022-11-14T07:15:04.030Z,1015.25
2022-11-14T07:16:04.166Z,1015.27
2022-11-14T07:17:04.003Z,1015.28
2022-11-14T07:18:04.025Z,1015.30
2022-11-14T07:19:03.992Z,1015.29
2022-11-14T07:20:03.979Z,1015.33
2022-11-14T07:21:03.968Z,1015.36
2022-11-14T07:22:03.946Z,1015.32
2022-11-14T07:23:03.952Z,1015.34
2022-11-14T07:24:03.928Z,1015.30
2022-11-14T07:25:03.927Z,1015.28
2022-11-14T07:26:03.913Z,1015.24
2022-11-14T07:27:03.902Z,1015.25
2022-11-14T07:28:03.882Z,1015.18
2022-11-14T07:29:03.906Z,1015.18
2022-11-14T07:30:03.860Z,1015.19
2022-11-14T07:31:03.864Z,1015.18
2022-11-14T07:32:03.840Z,1015.26
2022-11-14T07:33:03.833Z,1015.20
2022-11-14T07:34:03.863Z,1015.24
2022-11-14T07:35:03.812Z,1015.25
2022-11-14T07:36:03.800Z,1015.08
2022-11-14T07:37:03.794Z,1015.19
2022-11-14T07:38:03.783Z,1015.11
2022-11-14T07:39:03.767Z,1015.11
2022-11-14T07:40:03.763Z,1015.06
2022-11-14T07:41:03.744Z,1015.05
2022-11-14T07:42:03.739Z,1015.11
2022-11-14T07:43:03.772Z,1015.08
2022-11-14T07:44:03.714Z,1015.10
2022-11-14T07:45:03.715Z,1015.08
2022-11-14T07:46:03.680Z,1015.08
2022-11-14T07:47:03.686Z,1015.05
2022-11-14T07:48:03.690Z,1015.03
2022-11-14T07:49:03.668Z,1014.98
2022-11-14T07:50:03.678Z,1014.93
2022-11-14T07:51:03.639Z,1014.99
2022-11-14T07:52:03.629Z,1014.99
2022-11-14T07:53:03.609Z,1015.02
2022-11-14T07:54:03.597Z,1015.02
2022-11-14T07:55:03.615Z,1015.01
2022-11-14T07:56:03.577Z,1015.06
2022-11-14T07:57:03.573Z,1015.07
2022-11-14T07:58:03.555Z,1015.02
2022-11-14T07:59:03.545Z,1014.97
2022-11-14T08:00:03.540Z,1015.02
2022-11-14T08:01:03.633Z,1015.00
2022-11-14T08:02:03.519Z,1015.03
2022-11-14T08:03:03.496Z,1015.04
2022-11-14T08:04:03.499Z,1014.98
2022-11-14T08:05:03.504Z,1014.94
2022-11-14T08:06:03.501Z,1014.96
2022-11-14T08:07:03.593Z,1014.95
2022-11-14T08:08:03.454Z,1015.01
2022-11-14T08:09:03.430Z,1015.00
2022-11-14T08:10:03.432Z,1014.95
2022-11-14T08:11:03.417Z,1014.98
2022-11-14T08:12:03.405Z,1014.96
2022-11-14T08:13:31.694Z,1014.96
2022-11-14T08:14:04.386Z,1015.02
2022-11-14T08:15:03.379Z,1014.97
2022-11-14T08:16:06.617Z,1015.03
2022-11-14T08:17:04.352Z,1015.00
2022-11-14T08:18:03.340Z,1015.06
2022-11-14T08:19:03.340Z,1015.05
2022-11-14T08:20:03.325Z,1015.04
2022-11-14T08:21:03.314Z,1015.10
2022-11-14T08:22:03.333Z,1015.01
2022-11-14T08:23:03.289Z,1015.06
2022-11-14T08:24:03.296Z,1014.97
2022-11-14T08:25:03.262Z,1014.98
2022-11-14T08:26:03.248Z,1014.93
2022-11-14T08:27:03.241Z,1014.97
2022-11-14T08:28:03.284Z,1014.93
2022-11-14T08:29:03.269Z,1014.99
2022-11-14T08:30:03.224Z,1014.96
2022-11-14T08:31:03.213Z,1014.95
2022-11-14T08:32:03.191Z,1014.98
2022-11-14T08:33:03.188Z,1014.95
2022-11-14T08:34:03.195Z,1014.95
2022-11-14T08:35:03.166Z,1014.95
2022-11-14T08:36:03.146Z,1014.92
2022-11-14T08:37:03.153Z,1014.84
2022-11-14T08:38:03.148Z,1014.83
2022-11-14T08:39:03.136Z,1014.82
2022-11-14T08:40:03.128Z,1014.84
2022-11-14T08:41:03.164Z,1014.84
2022-11-14T08:42:03.124Z,1014.85
2022-11-14T08:43:03.066Z,1014.86
2022-11-14T08:44:03.061Z,1014.84
2022-11-14T08:45:03.565Z,1014.86
2022-11-14T08:46:03.039Z,1014.82
2022-11-14T08:47:03.052Z,1014.84
2022-11-14T08:48:03.143Z,1014.81
2022-11-14T08:49:03.116Z,1014.79
2022-11-14T08:50:03.039Z,1014.78
2022-11-14T08:51:02.996Z,1014.83
2022-11-14T08:52:02.976Z,1014.82
2022-11-14T08:53:02.964Z,1014.84
2022-11-14T08:54:02.971Z,1014.79
2022-11-14T08:55:02.932Z,1014.76
2022-11-14T08:56:02.966Z,1014.74
2022-11-14T08:57:02.931Z,1014.77
2022-11-14T08:58:02.910Z,1014.76
2022-11-14T08:59:02.906Z,1014.76
2022-11-14T09:00:02.891Z,1014.82
2022-11-14T09:01:02.890Z,1014.82
2022-11-14T09:02:02.909Z,1014.76
2022-11-14T09:03:02.962Z,1014.80
2022-11-14T09:04:03.057Z,1014.80
2022-11-14T09:05:02.841Z,1014.79
2022-11-14T09:06:02.965Z,1014.79
2022-11-14T09:07:03.177Z,1014.78
2022-11-14T09:08:02.811Z,1014.76
2022-11-14T09:09:02.828Z,1014.70
2022-11-14T09:10:02.852Z,1014.78
2022-11-14T09:11:05.234Z,1014.75
2022-11-14T09:12:02.856Z,1014.71
2022-11-14T09:13:02.775Z,1014.71
2022-11-14T09:14:02.768Z,1014.70
2022-11-14T09:15:02.762Z,1014.68
2022-11-14T09:16:02.748Z,1014.64
2022-11-14T09:17:05.990Z,1014.65
2022-11-14T09:18:02.719Z,1014.60
2022-11-14T09:19:02.740Z,1014.58
2022-11-14T09:20:02.701Z,1014.63
2022-11-14T09:21:02.673Z,1014.62
2022-11-14T09:22:02.688Z,1014.59
2022-11-14T09:23:02.686Z,1014.58
2022-11-14T09:24:02.650Z,1014.55
2022-11-14T09:25:02.639Z,1014.56
2022-11-14T09:26:02.673Z,1014.60
2022-11-14T09:27:02.656Z,1014.59
2022-11-14T09:28:03.100Z,1014.54
2022-11-14T09:29:02.631Z,1014.64
2022-11-14T09:30:02.589Z,1014.58
2022-11-14T09:31:02.571Z,1014.65
2022-11-14T09:32:02.656Z,1014.55
2022-11-14T09:33:06.967Z,1014.63
2022-11-14T09:34:03.549Z,1014.55
2022-11-14T09:35:02.521Z,1014.53
2022-11-14T09:36:02.576Z,1014.49
2022-11-14T09:37:02.492Z,1014.49
2022-11-14T09:38:02.506Z,1014.54
2022-11-14T09:39:02.479Z,1014.58
2022-11-14T09:40:02.486Z,1014.61
2022-11-14T09:41:02.520Z,1014.56
2022-11-14T09:42:02.467Z,1014.60
2022-11-14T09:43:02.437Z,1014.52
2022-11-14T09:44:02.651Z,1014.53
2022-11-14T09:45:02.653Z,1014.59
2022-11-14T09:46:02.433Z,1014.57
2022-11-14T09:47:02.407Z,1014.58
2022-11-14T09:48:02.515Z,1014.61
2022-11-14T09:49:02.355Z,1014.60
2022-11-14T09:50:02.355Z,1014.55
2022-11-14T09:51:02.432Z,1014.49
2022-11-14T09:52:02.377Z,1014.49
2022-11-14T09:53:02.359Z,1014.47
2022-11-14T09:54:03.141Z,1014.49
2022-11-14T09:55:02.360Z,1014.49
2022-11-14T09:56:02.277Z,1014.42
2022-11-14T09:57:02.279Z,1014.37
2022-11-14T09:58:02.292Z,1014.38
2022-11-14T09:59:02.234Z,1014.40
2022-11-14T10:00:02.241Z,1014.32
2022-11-14T10:01:07.942Z,1014.33
2022-11-14T10:02:03.254Z,1014.31
2022-11-14T10:03:02.203Z,1014.28
2022-11-14T10:04:05.852Z,1014.30
2022-11-14T10:05:03.191Z,1014.32
2022-11-14T10:06:02.183Z,1014.29
2022-11-14T10:07:02.184Z,1014.28
2022-11-14T10:08:02.138Z,1014.27
2022-11-14T10:09:02.135Z,1014.21
2022-11-14T10:10:02.138Z,1014.15
2022-11-14T10:11:02.110Z,1014.19
2022-11-14T10:12:02.140Z,1014.16
2022-11-14T10:13:02.099Z,1014.16
2022-11-14T10:14:02.095Z,1014.23
2022-11-14T10:15:02.062Z,1014.23
2022-11-14T10:16:02.084Z,1014.15
2022-11-14T10:17:06.454Z,1014.15
2022-11-14T10:18:03.028Z,1014.10
2022-11-14T10:19:02.018Z,1014.20
2022-11-14T10:20:02.009Z,1014.18
2022-11-14T10:21:01.997Z,1014.23
2022-11-14T10:22:02.226Z,1014.18
2022-11-14T10:23:01.988Z,1014.22
2022-11-14T10:24:01.990Z,1014.26
2022-11-14T10:25:01.951Z,1014.26
2022-11-14T10:26:01.941Z,1014.20
2022-11-14T10:27:01.926Z,1014.24
2022-11-14T10:28:05.232Z,1014.25
2022-11-14T10:29:02.045Z,1014.26
2022-11-14T10:30:01.913Z,1014.20
2022-11-14T10:31:01.887Z,1014.26
2022-11-14T10:32:01.882Z,1014.22
2022-11-14T10:33:01.883Z,1014.16
2022-11-14T10:34:01.874Z,1014.15
2022-11-14T10:35:01.862Z,1014.11
2022-11-14T10:36:01.838Z,1014.12
2022-11-14T10:37:01.821Z,1014.04
2022-11-14T10:38:01.821Z,1014.03
2022-11-14T10:39:01.828Z,1014.01
2022-11-14T10:40:01.852Z,1014.01
2022-11-14T10:41:01.789Z,1013.95
2022-11-14T10:42:06.182Z,1013.90
2022-11-14T10:43:02.771Z,1013.95
2022-11-14T10:44:01.756Z,1013.99
2022-11-14T10:45:01.737Z,1013.96
2022-11-14T10:46:01.986Z,1013.95
2022-11-14T10:47:01.716Z,1013.98
2022-11-14T10:48:01.703Z,1013.93
2022-11-14T10:49:01.781Z,1013.92
2022-11-14T10:50:01.690Z,1013.89
2022-11-14T10:51:01.694Z,1013.95
2022-11-14T10:52:01.674Z,1013.90
2022-11-14T10:53:01.691Z,1013.84
2022-11-14T10:54:01.637Z,1013.89
2022-11-14T10:55:02.111Z,1013.86
2022-11-14T10:56:05.445Z,1013.86
2022-11-14T10:57:01.639Z,1013.77
2022-11-14T10:58:01.622Z,1013.75
2022-11-14T10:59:01.602Z,1013.72
2022-11-14T11:00:01.572Z,1013.72
2022-11-14T11:01:01.624Z,1013.77
2022-11-14T11:02:01.646Z,1013.72
2022-11-14T11:03:01.560Z,1013.70
2022-11-14T11:04:01.611Z,1013.65
2022-11-14T11:05:01.520Z,1013.58
2022-11-14T11:06:01.524Z,1013.59
2022-11-14T11:07:01.579Z,1013.63
2022-11-14T11:08:10.286Z,1013.65
2022-11-14T11:09:02.704Z,1013.64
2022-11-14T11:10:01.464Z,1013.61
2022-11-14T11:11:01.481Z,1013.69
2022-11-14T11:12:01.438Z,1013.64
2022-11-14T11:13:01.525Z,1013.58
2022-11-14T11:14:01.411Z,1013.65
2022-11-14T11:15:01.410Z,1013.62
2022-11-14T11:16:01.397Z,1013.67
2022-11-14T11:17:01.409Z,1013.62
2022-11-14T11:18:01.409Z,1013.67
2022-11-14T11:19:09.095Z,1013.63
2022-11-14T11:20:06.430Z,1013.64
2022-11-14T11:21:02.407Z,1013.59
2022-11-14T11:22:01.353Z,1013.59
2022-11-14T11:23:03.323Z,1013.57
2022-11-14T11:24:01.305Z,1013.50
2022-11-14T11:25:01.297Z,1013.50
2022-11-14T11:26:01.277Z,1013.52
2022-11-14T11:27:01.260Z,1013.49
2022-11-14T11:28:01.249Z,1013.48
2022-11-14T11:29:01.263Z,1013.43
2022-11-14T11:30:01.242Z,1013.48
2022-11-14T11:31:01.221Z,1013.46
2022-11-14T11:32:01.216Z,1013.43
2022-11-14T11:33:01.197Z,1013.39
2022-11-14T11:34:01.231Z,1013.40
2022-11-14T11:35:01.193Z,1013.32
2022-11-14T11:36:01.166Z,1013.29
2022-11-14T11:37:01.160Z,1013.28
2022-11-14T11:38:01.147Z,1013.23
2022-11-14T11:39:01.138Z,1013.23
2022-11-14T11:40:01.140Z,1013.22
2022-11-14T11:41:01.113Z,1013.21
2022-11-14T11:42:10.294Z,1013.23
2022-11-14T11:43:38.011Z,1013.17
2022-11-14T11:44:02.583Z,1013.22
2022-11-14T11:45:01.078Z,1013.17
2022-11-14T11:46:01.062Z,1013.17
2022-11-14T11:47:01.126Z,1013.23
2022-11-14T11:48:01.046Z,1013.24
2022-11-14T11:49:01.041Z,1013.22
2022-11-14T11:50:01.038Z,1013.15
2022-11-14T11:51:01.002Z,1013.21
2022-11-14T11:52:01.001Z,1013.20
2022-11-14T11:53:00.999Z,1013.25
2022-11-14T11:54:00.988Z,1013.30
2022-11-14T11:55:00.985Z,1013.18
2022-11-14T11:56:00.950Z,1013.16
2022-11-14T11:57:00.940Z,1013.08
2022-11-14T11:58:00.946Z,1013.14
2022-11-14T11:59:00.961Z,1013.09
2022-11-14T12:00:00.952Z,1013.05
2022-11-14T12:01:00.899Z,1013.04
2022-11-14T12:02:00.936Z,1013.00
2022-11-14T12:03:01.055Z,1013.02
2022-11-14T12:04:00.936Z,1013.03
2022-11-14T12:05:00.863Z,1012.94